createdAt,value
2023-01-29T00:03:32.031Z,-1.13
2023-01-29T00:08:52.924Z,-1.26
2023-01-29T00:14:13.841Z,-1.31
2023-01-29T00:19:34.715Z,-1.27
2023-01-29T00:24:55.703Z,-1.27
2023-01-29T00:30:19.702Z,-1.25
2023-01-29T00:35:41.495Z,-1.18
2023-01-29T00:41:31.379Z,-1.17
2023-01-29T00:46:52.279Z,-1.16
2023-01-29T00:52:25.510Z,-1.18
2023-01-29T00:57:46.613Z,-1.17
2023-01-29T01:03:07.755Z,-1.16
2023-01-29T01:08:47.669Z,-1.21
2023-01-29T01:14:08.490Z,-1.21
2023-01-29T01:19:29.480Z,-1.25
2023-01-29T01:24:50.434Z,-1.28
2023-01-29T01:30:13.053Z,-1.32
2023-01-29T01:35:34.204Z,-1.30
2023-01-29T01:40:54.857Z,-1.27
2023-01-29T01:46:15.731Z,-1.28
2023-01-29T01:51:39.016Z,-1.34
2023-01-29T01:57:09.406Z,-1.32
2023-01-29T02:02:48.477Z,-1.28
2023-01-29T02:08:28.689Z,-1.27
2023-01-29T02:13:53.807Z,-1.30
2023-01-29T02:19:34.188Z,-1.30
2023-01-29T02:25:29.784Z,-1.32
2023-01-29T02:31:03.161Z,-1.31
2023-01-29T02:36:46.092Z,-1.35
2023-01-29T02:42:21.849Z,-1.32
2023-01-29T02:47:52.969Z,-1.35
2023-01-29T02:53:32.465Z,-1.37
2023-01-29T02:58:59.110Z,-1.39
2023-01-29T03:04:24.552Z,-1.37
2023-01-29T03:09:48.646Z,-1.39
2023-01-29T03:15:11.646Z,-1.41
2023-01-29T03:20:36.206Z,-1.46
2023-01-29T03:26:16.779Z,-1.47
2023-01-29T03:31:56.950Z,-1.52
2023-01-29T03:37:35.016Z,-1.59
2023-01-29T03:43:11.071Z,-1.71
2023-01-29T03:48:36.597Z,-1.73
2023-01-29T03:54:18.961Z,-1.79
2023-01-29T03:59:54.937Z,-1.85
2023-01-29T04:05:45.551Z,-1.88
2023-01-29T04:11:15.453Z,-1.95
2023-01-29T04:16:42.060Z,-2.03
2023-01-29T04:22:37.035Z,-2.15
2023-01-29T04:28:10.651Z,-2.31
2023-01-29T04:33:54.973Z,-2.42
2023-01-29T04:39:30.375Z,-2.52
2023-01-29T04:44:58.570Z,-2.65
2023-01-29T04:50:39.521Z,-2.74
2023-01-29T04:56:32.474Z,-2.83
2023-01-29T05:02:06.890Z,-2.89
2023-01-29T05:07:27.519Z,-2.91
2023-01-29T05:12:55.082Z,-2.98
2023-01-29T05:18:16.222Z,-2.91
2023-01-29T05:23:36.804Z,-2.66
2023-01-29T05:28:57.829Z,-2.44
2023-01-29T05:34:18.526Z,-2.28
2023-01-29T05:39:39.420Z,-2.16
2023-01-29T05:45:00.401Z,-2.10
2023-01-29T05:50:21.575Z,-2.06
2023-01-29T05:55:48.482Z,-2.00
2023-01-29T06:01:14.458Z,-1.97
2023-01-29T06:06:36.218Z,-1.95
2023-01-29T06:11:57.683Z,-1.91
2023-01-29T06:17:18.268Z,-1.92
2023-01-29T06:22:38.972Z,-1.91
2023-01-29T06:27:59.976Z,-1.89
2023-01-29T06:33:20.824Z,-1.95
2023-01-29T06:38:41.988Z,-1.92
2023-01-29T06:44:02.794Z,-1.86
2023-01-29T06:49:23.820Z,-1.86
2023-01-29T06:54:44.596Z,-1.84
2023-01-29T07:00:06.630Z,-1.82
2023-01-29T07:05:27.621Z,-1.80
2023-01-29T07:10:49.278Z,-1.73
2023-01-29T07:16:10.379Z,-1.64
2023-01-29T07:21:31.107Z,-1.54
2023-01-29T07:26:52.022Z,-1.46
2023-01-29T07:32:13.019Z,-1.40
2023-01-29T07:37:33.672Z,-1.32
2023-01-29T07:42:59.406Z,-1.20
2023-01-29T07:48:20.945Z,-1.04
2023-01-29T07:53:42.150Z,-0.88
2023-01-29T07:59:03.386Z,-0.70
2023-01-29T08:04:24.651Z,-0.64
2023-01-29T08:09:48.022Z,-0.63
2023-01-29T08:15:09.472Z,-0.62
2023-01-29T08:20:30.511Z,-0.52
2023-01-29T08:25:51.243Z,-0.49
2023-01-29T08:31:18.228Z,-0.35
2023-01-29T08:36:39.355Z,0.26
2023-01-29T08:41:59.918Z,0.96
2023-01-29T08:47:20.470Z,1.70
2023-01-29T08:52:41.252Z,3.72
2023-01-29T08:58:04.145Z,4.11
2023-01-29T09:03:25.026Z,9.77
2023-01-29T09:08:45.758Z,9.99
2023-01-29T09:14:06.363Z,17.78
2023-01-29T09:19:27.089Z,21.28
2023-01-29T09:24:47.886Z,23.98
2023-01-29T09:30:09.232Z,23.83
2023-01-29T09:35:30.166Z,22.24
2023-01-29T09:40:54.889Z,19.47
2023-01-29T09:46:23.022Z,16.70
2023-01-29T09:51:46.803Z,16.72
2023-01-29T09:57:08.012Z,16.19
2023-01-29T10:02:53.607Z,15.85
2023-01-29T10:08:46.769Z,14.48
2023-01-29T10:14:31.188Z,13.12
2023-01-29T10:19:51.615Z,12.79
2023-01-29T10:25:20.437Z,11.84
2023-01-29T10:30:41.704Z,11.41
2023-01-29T10:36:04.895Z,11.08
2023-01-29T10:41:42.494Z,10.66
2023-01-29T10:47:12.385Z,9.91
2023-01-29T10:52:55.930Z,8.40
2023-01-29T10:58:30.018Z,6.99
2023-01-29T11:04:01.939Z,6.25
2023-01-29T11:15:07.207Z,6.45
2023-01-29T11:20:28.356Z,6.47
2023-01-29T11:25:52.876Z,6.07
2023-01-29T11:31:18.018Z,5.97
2023-01-29T11:36:39.769Z,5.57
2023-01-29T11:42:04.642Z,5.26
2023-01-29T11:47:29.386Z,4.81
2023-01-29T11:52:50.311Z,4.12
2023-01-29T11:58:17.975Z,3.52
2023-01-29T12:03:41.659Z,3.47
2023-01-29T12:09:03.174Z,3.40
2023-01-29T12:14:27.231Z,3.37
2023-01-29T12:19:56.551Z,3.17
2023-01-29T12:25:45.388Z,3.42
2023-01-29T12:31:25.013Z,3.63
2023-01-29T12:36:55.005Z,3.66
2023-01-29T12:42:19.275Z,3.50
2023-01-29T12:47:43.083Z,3.39
2023-01-29T12:53:10.000Z,3.22
2023-01-29T12:58:35.161Z,3.12
2023-01-29T13:04:26.457Z,2.95
2023-01-29T13:09:50.803Z,2.81
2023-01-29T13:15:25.386Z,2.97
2023-01-29T13:20:46.499Z,2.97
2023-01-29T13:26:07.691Z,2.96
2023-01-29T13:31:31.647Z,3.16
2023-01-29T13:36:54.582Z,3.15
2023-01-29T13:42:37.547Z,2.99
2023-01-29T13:48:22.347Z,2.73
2023-01-29T13:53:43.586Z,2.78
2023-01-29T13:59:05.532Z,2.82
2023-01-29T14:04:28.398Z,2.76
2023-01-29T14:09:49.307Z,2.79
2023-01-29T14:15:21.248Z,2.71
2023-01-29T14:20:48.650Z,2.63
2023-01-29T14:26:32.301Z,2.53
2023-01-29T14:32:14.735Z,2.35
2023-01-29T14:37:37.242Z,2.28
2023-01-29T14:43:01.955Z,2.28
2023-01-29T14:48:35.213Z,2.26
2023-01-29T14:54:01.772Z,2.21
2023-01-29T14:59:27.074Z,2.14
2023-01-29T15:04:52.441Z,2.04
2023-01-29T15:10:40.533Z,1.86
2023-01-29T15:16:09.310Z,1.65
2023-01-29T15:21:30.799Z,1.59
2023-01-29T15:26:51.924Z,1.54
2023-01-29T15:32:29.725Z,1.49
2023-01-29T15:38:01.587Z,1.39
2023-01-29T15:43:26.873Z,1.35
2023-01-29T15:48:49.079Z,1.21
2023-01-29T15:54:10.964Z,1.07
2023-01-29T15:59:34.742Z,0.90
2023-01-29T16:04:55.787Z,0.73
2023-01-29T16:10:18.958Z,0.54
2023-01-29T16:15:40.896Z,0.36
2023-01-29T16:21:05.436Z,0.23
2023-01-29T16:26:27.143Z,0.04
2023-01-29T16:31:48.195Z,-0.04
2023-01-29T16:37:30.336Z,-0.08
2023-01-29T16:42:52.762Z,-0.17
2023-01-29T16:48:26.526Z,-0.20
2023-01-29T16:53:59.942Z,-0.21
2023-01-29T16:59:26.860Z,-0.30
2023-01-29T17:04:48.166Z,-0.35
2023-01-29T17:10:16.895Z,-0.37
2023-01-29T17:15:43.776Z,-0.44
2023-01-29T17:21:05.052Z,-0.50
2023-01-29T17:26:26.473Z,-0.60
2023-01-29T17:31:47.538Z,-0.67
2023-01-29T17:37:12.666Z,-0.67
2023-01-29T17:42:33.797Z,-0.75
2023-01-29T17:47:54.625Z,-0.81
2023-01-29T17:53:15.964Z,-0.90
2023-01-29T17:58:37.109Z,-0.92
2023-01-29T18:03:57.906Z,-0.95
2023-01-29T18:09:20.662Z,-1.03
2023-01-29T18:14:41.746Z,-1.10
2023-01-29T18:20:03.106Z,-1.14
2023-01-29T18:25:25.722Z,-1.20
2023-01-29T18:30:47.559Z,-1.26
2023-01-29T18:36:08.893Z,-1.31
2023-01-29T18:41:29.794Z,-1.38
2023-01-29T18:46:50.633Z,-1.44
2023-01-29T18:52:11.369Z,-1.45
2023-01-29T18:58:25.089Z,-1.53
2023-01-29T19:03:14.376Z,-1.57
2023-01-29T19:08:35.144Z,-1.62
2023-01-29T19:13:55.992Z,-1.68
2023-01-29T19:19:16.862Z,-1.79
2023-01-29T19:24:39.109Z,-1.84
2023-01-29T19:30:00.516Z,-1.88
2023-01-29T19:35:21.814Z,-1.88
2023-01-29T19:40:42.905Z,-1.95
2023-01-29T19:46:03.910Z,-2.02
2023-01-29T19:51:24.703Z,-2.02
2023-01-29T19:56:45.416Z,-2.10
2023-01-29T20:02:06.550Z,-2.15
2023-01-29T20:07:27.751Z,-2.21
2023-01-29T20:12:48.936Z,-2.26
2023-01-29T20:18:12.105Z,-2.30
2023-01-29T20:23:38.171Z,-2.28
2023-01-29T20:28:59.268Z,-2.29
2023-01-29T20:34:20.071Z,-2.33
2023-01-29T20:39:40.795Z,-2.34
2023-01-29T20:45:01.644Z,-2.37
2023-01-29T20:50:22.284Z,-2.37
2023-01-29T20:55:43.429Z,-2.38
2023-01-29T21:01:11.674Z,-2.41
2023-01-29T21:06:32.447Z,-2.45
2023-01-29T21:11:53.113Z,-2.49
2023-01-29T21:17:13.632Z,-2.50
2023-01-29T21:22:34.634Z,-2.48
2023-01-29T21:27:55.266Z,-2.49
2023-01-29T21:33:16.027Z,-2.46
2023-01-29T21:38:37.059Z,-2.43
2023-01-29T21:43:57.998Z,-2.46
2023-01-29T21:49:19.005Z,-2.46
2023-01-29T21:54:40.104Z,-2.49
2023-01-29T22:00:02.257Z,-2.46
2023-01-29T22:05:26.728Z,-2.48
2023-01-29T22:10:47.934Z,-2.45
2023-01-29T22:16:09.135Z,-2.47
2023-01-29T22:21:30.169Z,-2.50
2023-01-29T22:26:51.298Z,-2.44
2023-01-29T22:32:13.310Z,-2.45
2023-01-29T22:37:33.955Z,-2.44
2023-01-29T22:42:54.684Z,-2.38
2023-01-29T22:48:15.417Z,-2.34
2023-01-29T22:53:44.247Z,-2.36
2023-01-29T22:59:05.460Z,-2.40
2023-01-29T23:04:26.400Z,-2.42
2023-01-29T23:09:46.954Z,-2.43
2023-01-29T23:15:07.982Z,-2.39
2023-01-29T23:20:28.829Z,-2.40
2023-01-29T23:26:08.552Z,-2.40
2023-01-29T23:31:30.056Z,-2.41
2023-01-29T23:36:50.896Z,-2.36
2023-01-29T23:42:11.649Z,-2.34
2023-01-29T23:47:32.513Z,-2.32
2023-01-29T23:52:53.005Z,-2.25
2023-01-29T23:58:13.690Z,-2.17
